• Join FlightAware (Why Join?)
  • Login
  • US Flag 
06:34PM EDT


 

Airport Tracker/Info


-or-


 

Live Flight TrackerFlight Track Log ✈ UAL5961 ✈ 16-Oct-2013 ✈ KCLE - KIAD

Flight Track Log - Related Links

Times and Time Zones

All times are in EDT time to prevent confusion due to time zone crossing. See the UAL5961 flight status page for this flight to view local times or setup timezone preferences in your user account.

Time Position Orientation Groundspeed Altitude Reporting Facility
EDT Latitude Longitude Course Direction KTS MPH feet Rate Location/Type
04:51PM 41.3911 -81.8753 166° South 171 197 1,800  Level Cleveland Center
04:51PM 41.3867 -81.8772 198° South 172 198 2,100 1,860 Climbing Cleveland Center
04:52PM 41.3594 -81.8753 177° South 216 249 3,200 2,820 Climbing Cleveland Center
04:53PM 41.2913 -81.6290 118° Southeast  Level Estimated
04:53PM 41.2944 -81.8297 152° Southeast 258 297 6,800  Level Cleveland Center
04:54PM 41.2320 -81.5165 127° Southeast  Level Estimated
04:54PM 41.2639 -81.7292 112° Southeast 294 338 9,900  Level Cleveland Center
04:55PM 41.1727 -81.4042 118° Southeast  Level Estimated
04:55PM 41.2325 -81.6258 112° Southeast 323 372 11,400  Level Cleveland Center
04:56PM 41.1133 -81.2920 166° South  Level Estimated
04:56PM 41.1942 -81.4947 111° Southeast 376 433 12,600  Level Cleveland Center
04:57PM 41.1433 -81.3256 112° Southeast 403 464 15,200 2,220 Climbing Cleveland Center
04:58PM 41.0847 -81.2064 123° Southeast 394 453 17,200 1,560 Climbing Cleveland Center
04:59PM 40.9842 -81.1572 160° South 381 438 18,500 840 Climbing Cleveland Center
05:00PM 40.8769 -81.1189 165° South 390 449 19,000 240 Climbing Cleveland Center
05:01PM 40.7628 -81.0783 165° South 414 476 19,000  Level Cleveland Center
05:02PM 40.6408 -81.0342 165° South 407 468 19,000  Level Cleveland Center
05:03PM 40.5297 -80.9939 165° South 413 475 19,000  Level Cleveland Center
05:04PM 40.4164 -80.9547 165° South 421 484 19,000  Level Cleveland Center
05:05PM 40.3036 -80.9142 165° South 422 486 19,000  Level Cleveland Center
05:06PM 40.1911 -80.8744 165° South 423 487 19,000  Level Cleveland Center
05:07PM 40.0564 -80.8261 165° South 422 486 19,000  Level Cleveland Center
05:08PM 39.9719 -80.7183 136° Southeast 429 494 19,000  Level Cleveland Center
05:09PM 39.9089 -80.5844 122° Southeast 436 502 19,000  Level Cleveland Center
05:10PM 39.8447 -80.4517 122° Southeast 437 503 19,000  Level Cleveland Center
05:11PM 39.7825 -80.3181 121° Southeast 435 501 19,000  Level Cleveland Center
05:12PM 39.7025 -80.1536 122° Southeast 448 516 19,000  Level Cleveland Center
05:14PM 39.6356 -80.0147 122° Southeast 454 522 19,000  Level Cleveland Center
05:15PM 39.5706 -79.8817 122° Southeast 446 513 19,000  Level Cleveland Center
05:16PM 39.5339 -79.7225 107° East 465 535 19,000  Level Cleveland Center
05:17PM 39.5053 -79.5692 104° East 451 519 19,000  Level Cleveland Center
05:18PM 39.4706 -79.3811 103° East 449 517 19,000  Level Cleveland Center
05:19PM 39.4428 -79.2256 103° East 447 514 19,000  Level Cleveland Center
05:20PM 39.4139 -79.0692 103° East 448 516 19,000 -360 Level Cleveland Center
05:21PM 39.3842 -78.8969 103° East 441 507 18,300 -1,380 Descending Cleveland Center
05:22PM 39.3569 -78.7433 103° East 440 506 16,200 -1,980 Descending Cleveland Center
05:23PM 39.3289 -78.5950 104° East 429 494 14,300 -1,680 Descending Cleveland Center
05:24PM 39.3025 -78.4508 103° East 431 496 12,800 -1,260 Descending Washington Center
05:25PM 39.2639 -78.3258 112° Southeast 405 466 11,800 -1,020 Descending Washington Center
05:26PM 39.2308 -78.2147 111° Southeast 369 425 10,800 -1,380 Descending Washington Center
05:27PM 39.2311 -78.1050 90° East 322 371 9,100 -1,800 Descending Washington Center
05:28PM 39.2314 -77.9897 90° East 308 354 7,300 -1,740 Descending Washington Center
05:29PM 39.2356 -77.8881 87° East 288 331 5,600 -1,200 Descending Washington Center
05:30PM 39.2372 -77.7969 89° East 272 313 5,000 -300 Descending Washington Center
05:31PM 39.2428 -77.7114 85° East 249 287 5,000  Level Washington Center
05:32PM 39.2669 -77.6450 65° Northeast 208 239 5,000  Level Washington Center
05:33PM 39.3167 -77.6167 24° Northeast 219 252 5,000  Level Potomac TRACON
05:34PM 39.3167 -77.5500 90° East 200 230 5,000  Level Potomac TRACON
05:35PM 39.3167 -77.4833 90° East 198 228 5,000  Level Potomac TRACON
05:36PM 39.3000 -77.4333 113° Southeast 197 227 5,000 -540 Level Potomac TRACON
05:37PM 39.2667 -77.4500 201° Southwest 165 190 4,000 -1,020 Descending Potomac TRACON
05:38PM 39.2167 -77.4500 180° South 149 171 3,000 -480 Descending Potomac TRACON
05:39PM 39.1667 -77.4500 180° South 157 181 3,000  Level Potomac TRACON
05:40PM 39.1333 -77.4500 180° South 160 184 3,000 -300 Level Potomac TRACON
05:41PM 39.0833 -77.4500 180° South 163 188 2,500 -720 Descending Potomac TRACON
05:42PM 39.0333 -77.4667 195° South 154 177 1,600 -840 Descending Potomac TRACON
05:43PM 39.0000 -77.4667 180° South 134 154 1,000 -720 Descending Potomac TRACON